Terminal Aerodrome Forecast
Issued by NWS

Home | Current Version | Previous Version | Text Only | Print | Product List | Glossary On
Versions: 1 2 3 4 5 6 7 8 9 10 11 12 13 14
000
FTUS45 KRIW 281800 AAA
TAFBPI
TAF AMD
KBPI 281805Z 2818/2918 26021G30KT P6SM FEW110
     FM282100 30021G31KT P6SM FEW150
     FM290230 34010KT P6SM SKC
     FM290700 VRB05KT P6SM SKC=

USA.gov is the U.S. government's official web portal to all federal, state and local government web resources and services.